Time;durP1;ratioP1;P1;durP2;ratioP2;P2;SDS_P1;SDS_P2;PMS_P1;PMS_P2;Temp;Humidity;BMP_temperature;BMP_pressure;BME280_temperature;BME280_humidity;BME280_pressure;Samples;Min_cycle;Max_cycle;Signal;HPM_P1;HPM_P2
2021/06/01 00:00:43;;;;;;;4.00;2.87;;;18.90;51.30;;;;;;5130805;28;20427;-65
2021/06/01 00:03:09;;;;;;;3.40;3.10;;;18.90;51.30;;;;;;5130786;27;20811;-65
2021/06/01 00:05:35;;;;;;;4.80;3.63;;;18.90;51.20;;;;;;5130673;28;20438;-65
2021/06/01 00:08:03;;;;;;;6.40;2.97;;;18.80;51.20;;;;;;5130582;28;20462;-65
2021/06/01 00:10:29;;;;;;;3.63;3.33;;;18.80;51.30;;;;;;5124266;27;20435;-65
2021/06/01 00:12:55;;;;;;;4.07;3.70;;;18.80;51.20;;;;;;5116848;28;20443;-65
2021/06/01 00:15:21;;;;;;;3.17;2.90;;;18.70;51.20;;;;;;5116519;28;20534;-65
2021/06/01 00:17:48;;;;;;;3.40;3.00;;;18.70;51.50;;;;;;5116668;28;20470;-65
2021/06/01 00:20:14;;;;;;;3.47;2.80;;;18.60;51.00;;;;;;5116652;28;20478;-65
2021/06/01 00:22:41;;;;;;;3.70;3.13;;;18.50;50.60;;;;;;5116681;28;20516;-65
2021/06/01 00:25:10;;;;;;;3.20;2.90;;;18.30;50.40;;;;;;5116603;28;20454;-65
2021/06/01 00:27:36;;;;;;;3.83;2.70;;;18.20;50.90;;;;;;5116454;28;20470;-64
2021/06/01 00:30:04;;;;;;;5.00;3.10;;;18.20;51.10;;;;;;5116498;28;20435;-65
2021/06/01 00:32:30;;;;;;;4.70;2.93;;;18.20;51.50;;;;;;5116212;28;20434;-64
2021/06/01 00:34:56;;;;;;;3.37;2.90;;;18.10;51.70;;;;;;5116429;28;20447;-64
2021/06/01 00:37:22;;;;;;;3.63;3.33;;;18.10;52.00;;;;;;5116287;28;20857;-65
2021/06/01 00:39:49;;;;;;;3.60;3.00;;;18.00;52.20;;;;;;5115940;28;20984;-64
2021/06/01 00:42:16;;;;;;;3.60;3.00;;;18.00;52.30;;;;;;5116261;28;20447;-64
2021/06/01 00:44:42;;;;;;;3.37;3.17;;;18.00;52.50;;;;;;5116230;28;20451;-64
2021/06/01 00:47:08;;;;;;;3.83;3.37;;;18.00;52.80;;;;;;5115793;28;20474;-65
2021/06/01 00:49:35;;;;;;;3.07;2.87;;;18.00;52.90;;;;;;5116165;28;20423;-64
2021/06/01 00:52:01;;;;;;;4.77;3.10;;;17.90;52.80;;;;;;5116081;28;20450;-65
2021/06/01 00:54:28;;;;;;;4.40;3.20;;;17.90;52.70;;;;;;5115747;28;20943;-64
2021/06/01 00:56:54;;;;;;;3.30;3.00;;;17.70;52.40;;;;;;5115957;28;20508;-65
2021/06/01 00:59:22;;;;;;;3.83;3.37;;;17.60;52.70;;;;;;5115644;28;20479;-65
2021/06/01 01:01:48;;;;;;;3.37;3.07;;;17.50;53.00;;;;;;5115869;28;20454;-64
2021/06/01 01:04:14;;;;;;;3.80;3.40;;;17.50;53.30;;;;;;5116055;28;20478;-64
2021/06/01 01:06:55;;;;;;;3.67;3.30;;;17.40;53.30;;;;;;5115760;28;20783;-65
2021/06/01 01:09:22;;;;;;;3.57;2.87;;;17.40;53.50;;;;;;5116003;28;20481;-66
2021/06/01 01:11:55;;;;;;;3.63;3.23;;;17.40;53.70;;;;;;5116242;28;20864;-65
2021/06/01 01:14:28;;;;;;;3.70;3.40;;;17.40;53.70;;;;;;5116210;28;20431;-65
2021/06/01 01:17:01;;;;;;;4.70;3.40;;;17.40;53.90;;;;;;5115327;28;20458;-65
2021/06/01 01:19:54;;;;;;;4.70;3.17;;;17.40;54.10;;;;;;5115193;28;20463;-65
2021/06/01 01:22:21;;;;;;;4.70;3.20;;;17.30;54.70;;;;;;5114299;28;20905;-66
2021/06/01 01:24:53;;;;;;;4.07;3.57;;;17.30;54.30;;;;;;5115107;28;20956;-65
2021/06/01 01:27:27;;;;;;;3.90;3.60;;;17.40;54.60;;;;;;5115319;28;20462;-66
2021/06/01 01:29:56;;;;;;;4.20;3.80;;;17.40;54.70;;;;;;5115453;28;20424;-64
2021/06/01 01:32:30;;;;;;;4.47;3.87;;;17.30;54.70;;;;;;5115277;28;20442;-64
2021/06/01 01:34:59;;;;;;;4.60;3.70;;;17.30;54.80;;;;;;5115402;28;20427;-64
2021/06/01 01:37:27;;;;;;;5.60;3.67;;;17.30;54.80;;;;;;5115165;28;20490;-64
2021/06/01 01:39:58;;;;;;;4.70;4.30;;;17.20;54.80;;;;;;5115081;28;20519;-64
2021/06/01 01:42:27;;;;;;;4.30;3.90;;;17.20;54.80;;;;;;5115820;28;20457;-64
2021/06/01 01:44:54;;;;;;;6.33;4.00;;;17.20;54.80;;;;;;5115024;28;20526;-64
2021/06/01 01:50:09;;;;;;;4.90;4.10;;;17.20;55.10;;;;;;5115075;28;20461;-64
2021/06/01 01:52:37;;;;;;;7.47;4.27;;;17.20;55.20;;;;;;5115274;28;20447;-64
2021/06/01 01:55:07;;;;;;;3.80;3.40;;;17.10;55.10;;;;;;5114835;28;20526;-64
2021/06/01 01:57:34;;;;;;;3.93;3.63;;;17.20;55.20;;;;;;5114757;28;20478;-64
2021/06/01 02:00:01;;;;;;;5.93;3.50;;;17.10;55.10;;;;;;5114264;28;20489;-64
2021/06/01 02:02:28;;;;;;;4.30;3.90;;;17.10;55.00;;;;;;5114804;28;20447;-64
2021/06/01 02:04:55;;;;;;;4.13;3.73;;;17.10;54.80;;;;;;5114644;28;20448;-64
2021/06/01 02:07:22;;;;;;;3.97;3.67;;;17.00;54.50;;;;;;5114550;28;20827;-64
2021/06/01 02:09:49;;;;;;;3.50;3.20;;;16.90;54.60;;;;;;5114633;28;20443;-64
2021/06/01 02:12:15;;;;;;;3.70;3.40;;;16.80;54.90;;;;;;5114575;28;20434;-64
2021/06/01 02:14:42;;;;;;;3.70;3.40;;;16.80;54.90;;;;;;5114145;28;20447;-64
2021/06/01 02:17:08;;;;;;;4.73;4.00;;;16.80;55.00;;;;;;5114113;28;20968;-64
2021/06/01 02:19:34;;;;;;;3.97;3.60;;;16.80;55.10;;;;;;5114021;28;21061;-64
2021/06/01 02:22:19;;;;;;;4.20;3.63;;;16.70;55.00;;;;;;5114037;28;20450;-64
2021/06/01 02:24:51;;;;;;;4.43;3.20;;;16.70;55.00;;;;;;5114482;28;20423;-64
2021/06/01 02:27:22;;;;;;;3.13;2.93;;;16.70;55.30;;;;;;5114221;28;20490;-64
2021/06/01 02:30:00;;;;;;;4.40;3.90;;;16.60;55.10;;;;;;5114417;28;20423;-66
2021/06/01 02:32:31;;;;;;;4.30;3.90;;;16.60;55.00;;;;;;5114251;28;20431;-65
2021/06/01 02:35:02;;;;;;;3.70;3.30;;;16.60;55.10;;;;;;5113698;28;20803;-64
2021/06/01 02:37:29;;;;;;;3.57;3.07;;;16.60;55.20;;;;;;5114211;28;20451;-64
2021/06/01 02:39:57;;;;;;;4.50;3.47;;;16.60;55.30;;;;;;5113964;28;20479;-64
2021/06/01 02:42:24;;;;;;;5.13;3.50;;;16.50;55.30;;;;;;5114120;28;20447;-64
2021/06/01 02:44:51;;;;;;;3.50;3.23;;;16.50;55.50;;;;;;5114122;28;20442;-64
2021/06/01 02:47:18;;;;;;;4.83;3.13;;;16.50;55.50;;;;;;5116229;28;20964;-64
2021/06/01 02:49:44;;;;;;;3.67;3.37;;;16.40;55.60;;;;;;5116894;28;20454;-64
2021/06/01 02:52:11;;;;;;;4.30;3.20;;;16.40;55.60;;;;;;5114289;28;20439;-64
2021/06/01 02:54:37;;;;;;;3.57;3.27;;;16.40;55.80;;;;;;5113963;28;20443;-64
2021/06/01 02:57:06;;;;;;;3.93;3.10;;;16.30;55.80;;;;;;5113845;28;20467;-64
2021/06/01 02:59:32;;;;;;;3.90;3.30;;;16.20;56.20;;;;;;5113511;28;20490;-64
2021/06/01 03:01:59;;;;;;;5.00;4.60;;;16.20;55.80;;;;;;5113885;28;20496;-64
2021/06/01 03:04:25;;;;;;;3.23;2.93;;;16.20;55.80;;;;;;5113594;28;21010;-64
2021/06/01 03:06:51;;;;;;;3.00;2.70;;;16.10;55.80;;;;;;5113807;28;20481;-65
2021/06/01 03:09:18;;;;;;;6.30;3.70;;;16.10;56.00;;;;;;5113810;28;20492;-64
2021/06/01 03:11:46;;;;;;;5.40;3.17;;;16.10;56.10;;;;;;5113797;28;20446;-64
2021/06/01 03:14:14;;;;;;;3.27;3.00;;;16.10;56.30;;;;;;5113462;28;20949;-64
2021/06/01 03:16:40;;;;;;;3.40;3.10;;;16.00;56.20;;;;;;5113691;28;20442;-64
2021/06/01 03:19:06;;;;;;;3.23;2.93;;;16.00;56.30;;;;;;5113605;28;20478;-64
2021/06/01 03:21:34;;;;;;;3.90;3.60;;;16.00;56.40;;;;;;5113667;28;20446;-64
2021/06/01 03:24:00;;;;;;;3.40;3.10;;;16.00;56.40;;;;;;5113718;28;20447;-64
2021/06/01 03:26:26;;;;;;;4.30;3.17;;;16.00;56.40;;;;;;5113669;28;20443;-64
2021/06/01 03:28:52;;;;;;;4.63;3.00;;;15.90;56.40;;;;;;5113632;28;20463;-64
2021/06/01 03:31:20;;;;;;;2.83;2.50;;;15.90;56.20;;;;;;5113603;28;20447;-64
2021/06/01 03:33:50;;;;;;;4.27;3.40;;;15.80;55.80;;;;;;5113259;28;20454;-64
2021/06/01 03:36:17;;;;;;;4.20;3.40;;;15.80;55.80;;;;;;5113649;28;20435;-64
2021/06/01 03:38:44;;;;;;;4.90;3.90;;;15.70;55.80;;;;;;5113975;28;20463;-64
2021/06/01 03:41:11;;;;;;;6.10;3.20;;;15.70;55.90;;;;;;5114095;28;20451;-64
2021/06/01 03:43:37;;;;;;;3.17;2.80;;;15.60;55.80;;;;;;5113513;28;20469;-64
2021/06/01 03:46:03;;;;;;;3.50;3.20;;;15.60;56.10;;;;;;5115493;28;20502;-64
2021/06/01 03:48:31;;;;;;;3.30;2.93;;;15.60;56.20;;;;;;5117285;28;20466;-64
2021/06/01 03:50:57;;;;;;;3.30;3.10;;;15.40;56.10;;;;;;5117321;28;20455;-64
2021/06/01 03:53:23;;;;;;;5.17;3.03;;;15.30;56.40;;;;;;5117112;28;20426;-64
2021/06/01 03:55:49;;;;;;;3.43;3.13;;;15.20;56.60;;;;;;5117218;28;20449;-64
2021/06/01 03:58:16;;;;;;;4.03;3.30;;;15.20;57.00;;;;;;5116995;28;20490;-64
2021/06/01 04:00:42;;;;;;;2.90;2.57;;;15.20;57.40;;;;;;5117184;28;20489;-64
2021/06/01 04:03:09;;;;;;;3.60;2.73;;;15.20;57.70;;;;;;5117073;28;20449;-64
2021/06/01 04:05:36;;;;;;;3.20;2.90;;;15.20;57.90;;;;;;5117106;28;20435;-64
2021/06/01 04:08:05;;;;;;;3.57;3.00;;;15.20;58.50;;;;;;5116609;28;20988;-64
2021/06/01 04:10:32;;;;;;;3.40;3.10;;;15.20;58.00;;;;;;5116934;28;20453;-64
2021/06/01 04:12:58;;;;;;;3.90;3.10;;;15.20;58.20;;;;;;5117050;28;20491;-65
2021/06/01 04:15:24;;;;;;;4.43;3.10;;;15.20;58.20;;;;;;5116622;28;20457;-64
2021/06/01 04:17:50;;;;;;;3.43;3.10;;;15.20;58.40;;;;;;5116493;28;20980;-64
2021/06/01 04:20:18;;;;;;;4.30;3.33;;;15.20;58.40;;;;;;5116730;28;20478;-64
2021/06/01 04:22:46;;;;;;;4.40;2.73;;;15.20;58.30;;;;;;5116460;28;20431;-65
2021/06/01 04:25:12;;;;;;;4.13;3.03;;;15.20;58.40;;;;;;5116476;28;21081;-64
2021/06/01 04:27:38;;;;;;;4.53;2.80;;;15.20;58.40;;;;;;5116504;28;20474;-64
2021/06/01 04:30:07;;;;;;;2.93;2.73;;;15.20;58.70;;;;;;5116590;28;20443;-64
2021/06/01 04:32:33;;;;;;;3.30;3.00;;;15.30;58.90;;;;;;5116456;28;20533;-64
2021/06/01 04:34:59;;;;;;;3.27;2.97;;;15.30;58.70;;;;;;5116946;28;20447;-64
2021/06/01 04:37:26;;;;;;;3.60;3.30;;;15.30;58.60;;;;;;5116141;28;20443;-64
2021/06/01 04:39:54;;;;;;;3.40;3.13;;;15.50;58.80;;;;;;5116801;28;20479;-64
2021/06/01 04:42:21;;;;;;;3.30;3.00;;;15.60;58.60;;;;;;5116021;28;20945;-64
2021/06/01 04:44:47;;;;;;;4.23;2.87;;;15.70;57.40;;;;;;5116204;28;20450;-64
2021/06/01 04:47:14;;;;;;;3.90;2.90;;;15.80;56.70;;;;;;5116022;28;20940;-64
2021/06/01 04:49:40;;;;;;;3.40;3.20;;;16.00;57.00;;;;;;5116142;28;20449;-65
2021/06/01 04:52:07;;;;;;;4.30;3.70;;;16.10;57.00;;;;;;5116113;28;20435;-64
2021/06/01 04:54:33;;;;;;;3.10;2.90;;;16.10;57.40;;;;;;5115753;28;20944;-64
2021/06/01 04:57:01;;;;;;;7.63;2.80;;;16.20;57.80;;;;;;5115775;28;20458;-65
2021/06/01 04:59:27;;;;;;;3.70;2.63;;;16.30;57.80;;;;;;5115688;28;20505;-64
2021/06/01 05:01:53;;;;;;;3.17;2.83;;;16.40;56.80;;;;;;5115980;28;20442;-64
2021/06/01 05:04:19;;;;;;;3.03;2.60;;;16.40;56.50;;;;;;5115856;28;20453;-64
2021/06/01 05:06:46;;;;;;;6.10;4.30;;;16.50;54.90;;;;;;5115781;28;20454;-64
2021/06/01 05:09:12;;;;;;;3.73;3.43;;;16.50;55.30;;;;;;5115793;28;20519;-64
2021/06/01 05:11:38;;;;;;;3.20;2.60;;;16.70;55.90;;;;;;5115684;28;20450;-64
2021/06/01 05:14:11;;;;;;;3.43;2.73;;;16.70;54.00;;;;;;5115714;28;20477;-64
2021/06/01 05:16:37;;;;;;;2.80;2.60;;;16.80;54.70;;;;;;5115314;28;20900;-65
2021/06/01 05:19:03;;;;;;;3.30;3.00;;;16.80;55.20;;;;;;5115563;28;20473;-64
2021/06/01 05:21:29;;;;;;;3.37;3.03;;;16.90;55.30;;;;;;5115741;28;20450;-64
2021/06/01 05:23:56;;;;;;;2.70;2.50;;;17.00;55.30;;;;;;5115220;28;20909;-63
2021/06/01 05:26:22;;;;;;;6.83;3.40;;;17.10;55.00;;;;;;5115379;28;20447;-63
2021/06/01 05:28:48;;;;;;;3.53;3.23;;;17.10;54.20;;;;;;5115000;28;21000;-63
2021/06/01 05:31:19;;;;;;;2.30;2.10;;;17.20;54.10;;;;;;5115349;28;20779;-63
2021/06/01 05:33:51;;;;;;;3.00;2.80;;;17.30;54.40;;;;;;5115316;28;20431;-63
2021/06/01 05:36:17;;;;;;;2.40;2.20;;;17.30;54.20;;;;;;5115208;28;20431;-64
2021/06/01 05:38:43;;;;;;;9.00;3.17;;;17.40;54.20;;;;;;5115033;28;20466;-64
2021/06/01 05:41:10;;;;;;;3.03;2.70;;;17.50;54.00;;;;;;5115002;28;20450;-64
2021/06/01 05:43:38;;;;;;;2.77;2.57;;;17.50;52.50;;;;;;5115072;28;20538;-63
2021/06/01 05:46:05;;;;;;;3.50;2.40;;;17.60;52.80;;;;;;5115262;28;20432;-64
2021/06/01 05:48:32;;;;;;;2.63;2.40;;;17.70;53.00;;;;;;5115002;28;20471;-64
2021/06/01 05:50:59;;;;;;;2.60;2.40;;;17.80;53.10;;;;;;5114585;28;20450;-64
2021/06/01 05:53:26;;;;;;;3.00;2.73;;;17.90;52.50;;;;;;5114550;28;20963;-64
2021/06/01 05:55:53;;;;;;;3.30;3.00;;;18.00;52.70;;;;;;5114822;28;20485;-64
2021/06/01 05:58:19;;;;;;;2.90;2.70;;;18.10;52.80;;;;;;5114369;28;20482;-64
2021/06/01 06:00:46;;;;;;;4.40;2.97;;;18.20;52.50;;;;;;5114733;28;20485;-64
2021/06/01 06:03:12;;;;;;;4.67;3.40;;;18.30;52.20;;;;;;5114591;28;20905;-64
2021/06/01 06:05:39;;;;;;;4.00;2.97;;;18.40;51.90;;;;;;5114784;28;20438;-64
2021/06/01 06:08:11;;;;;;;4.17;3.20;;;18.50;51.80;;;;;;5114126;28;20512;-64
2021/06/01 06:10:37;;;;;;;5.13;3.20;;;18.60;50.40;;;;;;5114657;28;20427;-64
2021/06/01 06:13:04;;;;;;;2.80;2.60;;;18.60;50.80;;;;;;5114345;28;20438;-64
2021/06/01 06:15:31;;;;;;;5.53;3.50;;;18.80;51.50;;;;;;5114521;28;20439;-64
2021/06/01 06:18:02;;;;;;;5.00;2.80;;;18.90;51.70;;;;;;5114278;28;20470;-64
2021/06/01 06:20:28;;;;;;;4.60;3.70;;;19.00;51.50;;;;;;5114414;28;20467;-64
2021/06/01 06:22:56;;;;;;;3.20;2.90;;;19.10;51.60;;;;;;5114570;28;20528;-65
2021/06/01 06:25:22;;;;;;;4.33;3.60;;;19.30;51.40;;;;;;5114340;28;20492;-64
2021/06/01 06:27:49;;;;;;;3.47;3.13;;;19.40;50.90;;;;;;5114508;28;20535;-64
2021/06/01 06:30:16;;;;;;;2.97;2.70;;;19.60;50.80;;;;;;5114370;28;20472;-64
2021/06/01 06:32:43;;;;;;;4.93;3.33;;;19.70;50.60;;;;;;5114292;28;20427;-64
2021/06/01 06:35:09;;;;;;;5.40;2.90;;;19.80;50.30;;;;;;5114022;28;20431;-65
2021/06/01 06:37:36;;;;;;;4.47;3.57;;;19.90;49.60;;;;;;5114134;28;20473;-64
2021/06/01 06:40:05;;;;;;;6.70;3.30;;;20.10;48.50;;;;;;5114016;28;20501;-64
2021/06/01 06:42:33;;;;;;;6.40;3.37;;;20.20;48.50;;;;;;5113765;28;20451;-64
2021/06/01 06:44:59;;;;;;;3.40;2.80;;;20.30;48.60;;;;;;5113754;28;20447;-64
2021/06/01 06:47:29;;;;;;;8.53;3.33;;;20.50;47.80;;;;;;5113583;28;20474;-64
2021/06/01 06:49:55;;;;;;;4.30;3.30;;;20.60;47.60;;;;;;5113969;28;20435;-64
2021/06/01 06:52:22;;;;;;;3.60;3.00;;;20.80;47.40;;;;;;5113976;28;20434;-64
2021/06/01 06:54:48;;;;;;;3.87;3.20;;;21.00;47.40;;;;;;5113967;28;20487;-64
2021/06/01 06:57:16;;;;;;;5.63;3.03;;;21.10;47.20;;;;;;5113836;28;20469;-64
2021/06/01 06:59:42;;;;;;;3.50;2.90;;;21.20;46.90;;;;;;5113390;28;20482;-64
2021/06/01 07:02:09;;;;;;;2.80;2.50;;;21.40;46.50;;;;;;5113862;28;20454;-64
2021/06/01 07:04:36;;;;;;;4.20;3.60;;;21.60;46.20;;;;;;5113849;28;20432;-64
2021/06/01 07:07:03;;;;;;;3.27;2.67;;;21.80;46.00;;;;;;5113777;28;20459;-64
2021/06/01 07:09:29;;;;;;;3.67;2.87;;;22.00;45.90;;;;;;5113801;28;20852;-64
2021/06/01 07:11:55;;;;;;;6.37;3.00;;;22.20;45.70;;;;;;5113466;28;20438;-64
2021/06/01 07:14:32;;;;;;;3.50;2.67;;;22.40;45.60;;;;;;5113725;28;20439;-64
2021/06/01 07:16:58;;;;;;;3.43;2.60;;;22.60;45.00;;;;;;5113691;28;20833;-64
2021/06/01 07:19:24;;;;;;;3.40;2.93;;;22.70;44.80;;;;;;5113282;28;20486;-64
2021/06/01 07:21:51;;;;;;;3.83;2.70;;;22.90;44.60;;;;;;5117064;28;20446;-64
2021/06/01 07:24:17;;;;;;;6.17;2.87;;;23.10;43.70;;;;;;5117943;28;20438;-64
2021/06/01 07:26:43;;;;;;;6.73;2.73;;;23.30;43.30;;;;;;5118231;28;20447;-64
2021/06/01 07:29:09;;;;;;;4.50;2.60;;;23.50;43.50;;;;;;5117776;28;20423;-65
2021/06/01 07:31:37;;;;;;;4.07;2.53;;;23.60;43.00;;;;;;5117679;28;20445;-64
2021/06/01 07:34:03;;;;;;;2.70;2.50;;;23.90;42.70;;;;;;5117629;28;20428;-64
2021/06/01 07:36:30;;;;;;;3.43;3.23;;;24.00;42.50;;;;;;5117256;28;20885;-64
2021/06/01 07:38:56;;;;;;;9.57;3.37;;;24.20;42.00;;;;;;5117063;28;20980;-64
2021/06/01 07:41:23;;;;;;;3.70;2.73;;;24.30;41.60;;;;;;5117431;28;20484;-64
2021/06/01 07:43:49;;;;;;;3.23;2.80;;;24.50;41.40;;;;;;5117434;28;20430;-65
2021/06/01 07:46:15;;;;;;;3.80;3.30;;;24.70;41.10;;;;;;5117365;28;20451;-65
2021/06/01 07:48:42;;;;;;;3.27;2.70;;;24.80;40.70;;;;;;5117214;28;20466;-65
2021/06/01 07:51:11;;;;;;;4.40;2.70;;;25.00;40.10;;;;;;5117311;28;20430;-65
2021/06/01 07:53:38;;;;;;;4.30;2.87;;;25.20;39.90;;;;;;5117005;28;20435;-65
2021/06/01 07:56:07;;;;;;;4.67;3.27;;;25.40;39.40;;;;;;5117194;28;20794;-65
2021/06/01 07:58:33;;;;;;;3.90;3.00;;;25.60;37.90;;;;;;5116893;28;20960;-65
2021/06/01 08:01:00;;;;;;;3.20;2.53;;;25.70;37.90;;;;;;5117043;28;20474;-65
2021/06/01 08:03:26;;;;;;;2.83;2.63;;;25.90;38.10;;;;;;5117190;28;20430;-65
2021/06/01 08:05:53;;;;;;;4.27;2.37;;;26.10;38.00;;;;;;5117036;28;20451;-65
2021/06/01 08:08:20;;;;;;;3.00;2.60;;;26.30;37.70;;;;;;5116624;28;20976;-65
2021/06/01 08:10:47;;;;;;;3.30;2.40;;;26.50;38.10;;;;;;5116969;28;20443;-67
2021/06/01 08:13:14;;;;;;;4.10;2.67;;;26.70;37.40;;;;;;5116623;28;20897;-67
2021/06/01 08:15:43;;;;;;;3.23;3.00;;;26.90;36.60;;;;;;5116828;28;20538;-67
2021/06/01 08:18:11;;;;;;;3.67;2.20;;;27.20;36.50;;;;;;5116354;28;20964;-67
2021/06/01 08:20:40;;;;;;;5.70;2.23;;;27.30;36.00;;;;;;5116735;28;20474;-67
2021/06/01 08:23:08;;;;;;;2.57;2.37;;;27.50;35.80;;;;;;5116750;28;20458;-67
2021/06/01 08:25:34;;;;;;;2.60;2.40;;;27.60;34.60;;;;;;5116623;28;20451;-67
2021/06/01 08:28:00;;;;;;;2.73;2.50;;;27.80;34.50;;;;;;5116290;28;20481;-68
2021/06/01 08:30:29;;;;;;;2.63;2.53;;;28.00;34.30;;;;;;5117118;28;20443;-68
2021/06/01 08:32:56;;;;;;;3.00;2.50;;;28.10;33.20;;;;;;5116036;28;20515;-68
2021/06/01 08:35:22;;;;;;;5.00;2.33;;;28.30;33.10;;;;;;5116508;28;20446;-68
2021/06/01 08:37:48;;;;;;;2.40;2.20;;;28.50;33.10;;;;;;5116044;28;20976;-68
2021/06/01 08:40:17;;;;;;;3.77;2.23;;;28.60;32.50;;;;;;5116346;28;20531;-68
2021/06/01 08:42:44;;;;;;;5.00;2.60;;;28.80;31.50;;;;;;5116366;28;20544;-68
2021/06/01 08:45:10;;;;;;;3.17;2.33;;;28.90;31.70;;;;;;5116337;28;20806;-68
2021/06/01 08:47:38;;;;;;;3.00;2.57;;;29.10;31.90;;;;;;5116713;28;20466;-68
2021/06/01 08:50:07;;;;;;;3.10;2.57;;;29.20;29.40;;;;;;5116161;28;20443;-68
2021/06/01 08:52:34;;;;;;;2.50;2.30;;;29.30;29.80;;;;;;5115809;28;20953;-68
2021/06/01 08:55:00;;;;;;;2.77;2.20;;;29.20;29.00;;;;;;5116135;28;20435;-68
2021/06/01 08:57:28;;;;;;;2.30;2.10;;;29.40;30.60;;;;;;5115976;28;20466;-68
2021/06/01 08:59:54;;;;;;;2.33;2.23;;;29.50;30.00;;;;;;5115602;28;20471;-68
2021/06/01 09:02:21;;;;;;;2.40;2.20;;;29.70;30.00;;;;;;5116013;28;20443;-68
2021/06/01 09:04:52;;;;;;;1.93;1.83;;;29.60;27.30;;;;;;5115624;28;20861;-68
2021/06/01 09:07:26;;;;;;;2.10;2.00;;;29.80;28.60;;;;;;5115904;28;20524;-68
2021/06/01 09:10:08;;;;;;;3.83;2.23;;;30.00;29.00;;;;;;5115902;28;20442;-68
2021/06/01 09:12:52;;;;;;;4.60;2.23;;;30.20;29.00;;;;;;5115833;28;20466;-68
2021/06/01 09:15:34;;;;;;;3.07;2.50;;;30.40;29.10;;;;;;5115789;28;20434;-68
2021/06/01 09:21:12;;;;;;;2.47;2.23;;;30.80;27.90;;;;;;5115030;28;20931;-68
2021/06/01 09:23:49;;;;;;;2.37;2.17;;;31.00;27.60;;;;;;5115592;28;20435;-67
2021/06/01 09:26:46;;;;;;;2.90;2.30;;;31.20;27.10;;;;;;5115516;28;20431;-68
2021/06/01 09:29:14;;;;;;;3.10;2.60;;;31.40;26.50;;;;;;5115493;28;20426;-68
2021/06/01 09:31:40;;;;;;;2.53;2.10;;;31.60;25.70;;;;;;5115371;28;20812;-68
2021/06/01 09:34:07;;;;;;;2.20;1.97;;;31.70;26.00;;;;;;5115350;28;20442;-68
2021/06/01 09:36:34;;;;;;;4.70;2.00;;;31.90;25.10;;;;;;5115314;28;20427;-68
2021/06/01 09:39:03;;;;;;;2.30;2.10;;;32.00;25.00;;;;;;5115179;28;20462;-68
2021/06/01 09:41:31;;;;;;;2.07;1.97;;;32.10;25.00;;;;;;5115092;28;20483;-68
2021/06/01 09:43:59;;;;;;;2.10;2.00;;;32.10;23.40;;;;;;5114273;28;20438;-68
2021/06/01 09:46:28;;;;;;;2.27;2.07;;;32.30;24.80;;;;;;5115100;28;20446;-68
2021/06/01 09:48:56;;;;;;;1.87;1.77;;;32.50;24.90;;;;;;5114668;28;20816;-68
2021/06/01 09:51:28;;;;;;;2.77;2.57;;;32.70;24.10;;;;;;5115057;28;20430;-68
2021/06/01 09:53:56;;;;;;;2.70;2.27;;;32.90;24.40;;;;;;5114980;28;20492;-68
2021/06/01 09:56:22;;;;;;;3.97;2.20;;;33.10;24.60;;;;;;5114723;28;20436;-68
2021/06/01 09:58:50;;;;;;;2.53;2.33;;;33.40;24.20;;;;;;5114754;28;20474;-68
2021/06/01 10:01:16;;;;;;;4.63;2.53;;;33.50;23.60;;;;;;5115049;28;20485;-69
2021/06/01 10:03:47;;;;;;;3.00;2.67;;;33.70;23.50;;;;;;5114487;28;20453;-69
2021/06/01 10:06:13;;;;;;;2.33;2.13;;;34.00;23.90;;;;;;5114540;28;20442;-69
2021/06/01 10:08:46;;;;;;;2.47;2.33;;;34.30;23.80;;;;;;5114397;28;21056;-68
2021/06/01 10:11:13;;;;;;;2.80;2.60;;;34.60;21.90;;;;;;5114841;28;20438;-68
2021/06/01 10:13:41;;;;;;;6.90;2.90;;;34.90;22.10;;;;;;5114543;28;20494;-68
2021/06/01 10:16:10;;;;;;;2.80;2.23;;;35.20;22.40;;;;;;5115170;28;20430;-68
2021/06/01 10:18:39;;;;;;;2.53;2.33;;;35.50;22.50;;;;;;5114219;28;20462;-68
2021/06/01 10:21:10;;;;;;;3.37;2.93;;;35.90;21.80;;;;;;5114427;28;20462;-68
2021/06/01 10:23:38;;;;;;;4.90;2.37;;;36.30;20.90;;;;;;5114498;28;20886;-68
2021/06/01 10:26:06;;;;;;;2.70;2.50;;;36.70;20.60;;;;;;5114437;28;20427;-68
2021/06/01 10:28:34;;;;;;;2.43;2.23;;;37.00;19.10;;;;;;5114307;28;20466;-68
2021/06/01 10:31:00;;;;;;;2.23;2.13;;;36.90;17.30;;;;;;5114113;28;20999;-68
2021/06/01 10:33:33;;;;;;;3.63;2.20;;;36.80;19.00;;;;;;5114575;28;20431;-68
2021/06/01 10:36:07;;;;;;;2.40;2.20;;;36.90;17.40;;;;;;5114451;28;20513;-69
2021/06/01 10:50:31;;;;;;;2.60;2.20;;;37.50;19.30;;;;;;5110918;27;20488;-69
2021/06/01 10:53:14;;;;;;;2.60;2.40;;;38.40;19.20;;;;;;5113829;28;20180;-69
2021/06/01 10:56:05;;;;;;;1.87;1.77;;;39.10;17.60;;;;;;5113972;28;20226;-69
2021/06/01 10:58:56;;;;;;;1.90;1.80;;;39.90;17.40;;;;;;5113661;28;20224;-69
2021/06/01 11:04:11;;;;;;;4.43;2.83;;;41.10;16.30;;;;;;5113977;28;20183;-66
2021/06/01 11:07:24;;;;;;;3.40;2.15;;;41.80;16.40;;;;;;5113630;28;20181;-66
2021/06/01 11:09:51;;;;;;;2.22;1.80;;;42.40;16.10;;;;;;5114096;28;20188;-66
2021/06/01 11:12:44;;;;;;;2.30;1.70;;;43.00;15.00;;;;;;5113937;28;20230;-66
2021/06/01 11:15:30;;;;;;;1.90;1.80;;;43.30;14.30;;;;;;5113923;28;20276;-66
2021/06/01 11:18:20;;;;;;;2.40;1.88;;;43.70;14.40;;;;;;5113342;27;20690;-67
2021/06/01 11:21:27;;;;;;;4.97;1.80;;;44.10;14.10;;;;;;5113411;28;20277;-67
2021/06/01 11:24:35;;;;;;;1.70;1.60;;;43.40;11.40;;;;;;5113553;28;20740;-66
2021/06/01 11:35:59;;;;;;;1.75;1.40;;;44.70;13.70;;;;;;5088210;28;20241;-67
2021/06/01 11:38:31;;;;;;;1.77;1.67;;;45.10;12.30;;;;;;5113650;28;20224;-67
2021/06/01 11:41:05;;;;;;;2.10;1.90;;;44.70;11.00;;;;;;5113727;28;20205;-67
2021/06/01 11:43:32;;;;;;;2.65;2.45;;;44.00;11.70;;;;;;5113529;28;20195;-67
2021/06/01 11:51:31;;;;;;;2.47;2.17;;;44.60;11.70;;;;;;5113474;28;20179;-67
2021/06/01 11:53:59;;;;;;;5.13;2.60;;;44.80;12.80;;;;;;5113413;28;20220;-67
2021/06/01 11:56:43;;;;;;;3.30;2.20;;;45.10;12.20;;;;;;5113553;28;20204;-67
2021/06/01 12:02:14;;;;;;;3.88;1.90;;;45.60;12.70;;;;;;5113661;28;20184;-67
2021/06/01 12:04:53;;;;;;;2.00;1.90;;;45.80;10.60;;;;;;5113701;28;20188;-67
2021/06/01 12:13:08;;;;;;;1.75;1.65;;;46.50;12.60;;;;;;5117091;28;20305;-67
2021/06/01 12:18:25;;;;;;;1.88;1.75;;;47.30;12.50;;;;;;5117186;28;20260;-67
2021/06/01 12:20:51;;;;;;;1.90;1.50;;;47.60;11.90;;;;;;5117308;28;20555;-67
2021/06/01 12:23:31;;;;;;;1.85;1.67;;;47.90;11.90;;;;;;5117011;28;20180;-67
2021/06/01 12:26:12;;;;;;;2.35;1.80;;;48.30;11.70;;;;;;5116836;28;20184;-67
2021/06/01 12:32:07;;;;;;;1.63;1.52;;;48.90;11.40;;;;;;5116797;28;20180;-67
2021/06/01 12:34:47;;;;;;;4.28;1.88;;;49.20;11.00;;;;;;5116377;28;20196;-67
2021/06/01 12:43:05;;;;;;;1.33;1.23;;;50.00;10.30;;;;;;5116366;28;20222;-68
2021/06/01 12:45:52;;;;;;;2.05;1.60;;;50.20;10.10;;;;;;5116190;28;20196;-68
2021/06/01 13:08:26;;;;;;;1.60;1.50;;;50.90;8.40;;;;;;5105047;28;20212;-67
2021/06/01 13:14:14;;;;;;;2.25;1.60;;;51.10;9.20;;;;;;5115887;28;20222;-67
2021/06/01 13:19:30;;;;;;;1.60;1.50;;;51.70;9.40;;;;;;5115816;28;20662;-68
2021/06/01 13:22:04;;;;;;;1.20;1.10;;;52.10;9.10;;;;;;5115721;27;20568;-67
2021/06/01 13:30:29;;;;;;;1.52;1.42;;;51.40;7.30;;;;;;5115652;28;20176;-67
2021/06/01 13:38:34;;;;;;;3.85;1.75;;;51.20;7.50;;;;;;5115407;28;20692;-67
2021/06/01 13:46:46;;;;;;;1.85;1.75;;;50.20;9.50;;;;;;5115161;28;20552;-67
2021/06/01 13:49:17;;;;;;;1.75;1.65;;;50.60;9.80;;;;;;5114952;28;20531;-67
2021/06/01 13:52:01;;;;;;;2.15;1.52;;;51.20;8.80;;;;;;5115192;28;20197;-67
2021/06/01 13:57:18;;;;;;;1.70;1.60;;;51.70;8.60;;;;;;5115052;28;20607;-68
2021/06/01 13:59:51;;;;;;;2.95;1.60;;;52.20;8.70;;;;;;5114489;28;20295;-67
2021/06/01 14:10:55;;;;;;;1.60;1.50;;;52.80;5.60;;;;;;5114778;28;20241;-68
2021/06/01 14:21:50;;;;;;;1.42;1.33;;;52.80;8.20;;;;;;5114385;28;20334;-68
2021/06/01 14:29:57;;;;;;;1.98;1.63;;;53.70;7.70;;;;;;5114025;28;20222;-68
2021/06/01 14:38:10;;;;;;;2.25;1.42;;;53.60;6.90;;;;;;5114304;28;20215;-68
2021/06/01 15:11:26;;;;;;;1.85;1.63;;;53.70;6.50;;;;;;5113753;28;20175;-68
2021/06/01 15:23:16;;;;;;;1.65;1.55;;;51.80;7.80;;;;;;5113572;28;20183;-68
2021/06/01 15:28:43;;;;;;;1.77;1.67;;;52.20;8.00;;;;;;5113792;28;20226;-68
2021/06/01 15:31:30;;;;;;;3.50;1.90;;;52.20;7.20;;;;;;5113884;28;20224;-68
2021/06/01 15:48:00;;;;;;;5.05;1.70;;;48.50;8.60;;;;;;5117317;28;20294;-67
2021/06/01 15:50:34;;;;;;;2.05;1.85;;;48.10;8.40;;;;;;5117650;28;20177;-69
2021/06/01 15:53:32;;;;;;;2.55;1.88;;;47.70;8.80;;;;;;5117434;28;20184;-67
2021/06/01 16:15:35;;;;;;;4.43;2.00;;;45.50;10.70;;;;;;5093665;28;20192;-68
2021/06/01 16:23:35;;;;;;;3.05;2.40;;;44.50;12.20;;;;;;5116854;28;20318;-67
2021/06/01 16:31:40;;;;;;;3.05;2.38;;;44.70;11.60;;;;;;5098745;28;20211;-67
2021/06/01 16:42:45;;;;;;;2.75;1.90;;;43.50;12.20;;;;;;5116559;28;20556;-67
2021/06/01 17:04:43;;;;;;;3.05;1.83;;;40.90;12.90;;;;;;5116086;28;20180;-66